Time;durP1;ratioP1;P1;durP2;ratioP2;P2;SDS_P1;SDS_P2;PMS_P1;PMS_P2;Temp;Humidity;BMP_temperature;BMP_pressure;BME280_temperature;BME280_humidity;BME280_pressure;Samples;Min_cycle;Max_cycle;Signal;HPM_P1;HPM_P2
2021/12/20 00:01:23;;;;;;;4.53;3.05;;;17.60;47.70;;;;;;5120559;28;20035;-46
2021/12/20 00:03:48;;;;;;;3.95;2.92;;;17.60;47.70;;;;;;5120377;28;20475;-42
2021/12/20 00:06:14;;;;;;;3.85;3.28;;;17.60;47.70;;;;;;5121118;28;20506;-39
2021/12/20 00:08:41;;;;;;;5.07;2.97;;;17.60;47.70;;;;;;5120881;28;20012;-40
2021/12/20 00:11:07;;;;;;;3.88;3.10;;;17.70;47.70;;;;;;5117600;28;20090;-38
2021/12/20 00:13:33;;;;;;;4.85;3.13;;;17.70;47.70;;;;;;5116798;28;20020;-37
2021/12/20 00:15:59;;;;;;;3.33;2.90;;;17.60;47.60;;;;;;5115828;28;20039;-38
2021/12/20 00:18:26;;;;;;;5.03;3.15;;;17.60;47.70;;;;;;5116100;28;20019;-38
2021/12/20 00:20:52;;;;;;;3.97;3.17;;;17.60;47.80;;;;;;5098109;28;20020;-37
2021/12/20 00:23:18;;;;;;;4.25;2.97;;;17.60;47.70;;;;;;5116014;28;20060;-39
2021/12/20 00:25:48;;;;;;;4.85;3.00;;;17.60;47.70;;;;;;5116955;28;20110;-37
2021/12/20 00:28:15;;;;;;;3.70;2.72;;;17.60;47.70;;;;;;5118679;28;20030;-38
2021/12/20 00:30:41;;;;;;;5.45;3.10;;;17.70;47.60;;;;;;5117242;28;20466;-38
2021/12/20 00:33:08;;;;;;;5.72;2.85;;;17.70;47.70;;;;;;5082183;28;20019;-39
2021/12/20 00:35:33;;;;;;;4.25;2.95;;;17.70;47.70;;;;;;5117668;28;20056;-38
2021/12/20 00:40:44;;;;;;;3.72;2.75;;;17.70;47.70;;;;;;5118017;28;20038;-39
2021/12/20 00:43:10;;;;;;;4.57;2.80;;;17.70;47.70;;;;;;5117460;28;20041;-37
2021/12/20 00:45:39;;;;;;;4.10;2.92;;;17.60;47.70;;;;;;5098952;28;20509;-38
2021/12/20 00:48:05;;;;;;;3.63;2.72;;;17.60;47.80;;;;;;5118355;28;20015;-38
2021/12/20 00:50:31;;;;;;;3.75;2.67;;;17.70;47.80;;;;;;5118400;28;20091;-39
2021/12/20 00:52:57;;;;;;;3.95;2.80;;;17.60;47.70;;;;;;5118714;28;20031;-38
2021/12/20 00:55:24;;;;;;;4.47;3.10;;;17.60;48.30;;;;;;5116788;28;20008;-38
2021/12/20 00:57:51;;;;;;;4.43;2.80;;;17.60;47.80;;;;;;5115486;28;20079;-39
2021/12/20 01:00:20;;;;;;;4.18;2.80;;;17.70;47.70;;;;;;5115449;28;20008;-38
2021/12/20 01:02:45;;;;;;;4.70;2.90;;;17.70;47.70;;;;;;5115841;28;20081;-37
2021/12/20 01:05:11;;;;;;;3.67;2.67;;;17.70;47.80;;;;;;5115543;28;20362;-39
2021/12/20 01:07:37;;;;;;;4.30;2.85;;;17.70;47.80;;;;;;5097544;28;20462;-38
2021/12/20 01:10:06;;;;;;;4.70;2.92;;;17.70;47.70;;;;;;5115168;28;20023;-37
2021/12/20 01:12:42;;;;;;;4.27;2.70;;;17.70;47.70;;;;;;5114889;28;20015;-38
2021/12/20 01:15:09;;;;;;;4.03;2.72;;;17.70;47.80;;;;;;5114369;28;20020;-38
2021/12/20 01:17:36;;;;;;;3.80;2.83;;;17.70;47.70;;;;;;5114731;28;20059;-38
2021/12/20 01:20:04;;;;;;;3.22;2.70;;;17.60;47.70;;;;;;5114639;28;20106;-39
2021/12/20 01:22:29;;;;;;;4.10;2.70;;;17.70;47.70;;;;;;5114820;28;20016;-38
2021/12/20 01:24:56;;;;;;;4.38;2.90;;;17.70;47.80;;;;;;5114754;28;20098;-37
2021/12/20 01:27:24;;;;;;;4.32;2.72;;;17.70;47.80;;;;;;5113698;28;20055;-38
2021/12/20 01:29:50;;;;;;;4.55;2.75;;;17.70;47.80;;;;;;5113766;28;20065;-37
2021/12/20 01:32:15;;;;;;;3.78;2.78;;;17.60;47.80;;;;;;5101620;28;20016;-38
2021/12/20 01:34:42;;;;;;;4.60;2.70;;;17.70;47.80;;;;;;5120384;28;20378;-37
2021/12/20 01:37:07;;;;;;;4.07;2.50;;;17.60;47.70;;;;;;5120555;28;20041;-37
2021/12/20 01:39:33;;;;;;;4.05;2.60;;;17.70;47.70;;;;;;5120483;28;20039;-37
2021/12/20 01:42:02;;;;;;;4.40;2.80;;;17.70;47.70;;;;;;5123518;28;20057;-41
2021/12/20 01:44:30;;;;;;;3.25;2.50;;;17.60;47.70;;;;;;5105956;28;20035;-38
2021/12/20 01:46:57;;;;;;;5.15;2.65;;;17.70;47.70;;;;;;5123929;28;20019;-37
2021/12/20 01:49:24;;;;;;;3.75;2.47;;;17.60;47.70;;;;;;5122875;28;20023;-38
2021/12/20 01:52:10;;;;;;;4.50;2.90;;;17.70;47.80;;;;;;5122732;28;20019;-38
2021/12/20 01:54:36;;;;;;;3.92;2.70;;;17.60;47.80;;;;;;5123660;28;20050;-39
2021/12/20 01:57:01;;;;;;;4.60;2.50;;;17.70;47.80;;;;;;5124811;28;20020;-41
2021/12/20 01:59:28;;;;;;;3.08;2.53;;;17.70;47.70;;;;;;5108185;28;20432;-39
2021/12/20 02:01:54;;;;;;;4.85;2.47;;;17.70;47.70;;;;;;5124265;28;20023;-39
2021/12/20 02:04:21;;;;;;;5.38;2.78;;;17.70;47.80;;;;;;5123266;28;20084;-38
2021/12/20 02:06:48;;;;;;;4.22;2.58;;;17.60;47.70;;;;;;5123898;28;20555;-39
2021/12/20 02:09:18;;;;;;;4.65;2.58;;;17.60;47.70;;;;;;5124470;28;20026;-38
2021/12/20 02:11:48;;;;;;;3.33;2.40;;;17.70;47.80;;;;;;5126565;28;20087;-38
2021/12/20 02:14:15;;;;;;;4.43;2.60;;;17.70;47.80;;;;;;5125060;28;20095;-38
2021/12/20 02:16:41;;;;;;;5.00;2.60;;;17.70;47.70;;;;;;5124493;28;20054;-39
2021/12/20 02:19:09;;;;;;;4.07;2.40;;;17.70;47.70;;;;;;5125247;28;20027;-37
2021/12/20 02:21:35;;;;;;;5.40;2.60;;;17.70;47.70;;;;;;5107804;28;20079;-40
2021/12/20 02:24:01;;;;;;;4.07;2.45;;;17.70;47.70;;;;;;5125727;28;20063;-38
2021/12/20 02:26:27;;;;;;;3.47;2.33;;;17.60;47.80;;;;;;5121702;28;20080;-37
2021/12/20 02:28:56;;;;;;;4.57;2.50;;;17.70;47.80;;;;;;5120376;28;20015;-37
2021/12/20 02:39:41;;;;;;;4.65;2.40;;;17.70;47.70;;;;;;5017281;28;20048;-38
2021/12/20 02:42:10;;;;;;;5.47;2.25;;;17.60;47.80;;;;;;5015118;28;20034;-37
2021/12/20 02:44:36;;;;;;;3.03;2.10;;;17.70;47.80;;;;;;5014210;28;20054;-38
2021/12/20 02:47:28;;;;;;;4.15;2.38;;;17.70;47.80;;;;;;5014597;28;20527;-38
2021/12/20 02:49:55;;;;;;;4.90;2.60;;;17.70;47.80;;;;;;5014393;28;20018;-38
2021/12/20 02:52:21;;;;;;;3.22;2.08;;;17.70;47.80;;;;;;5014354;28;20014;-39
2021/12/20 02:54:47;;;;;;;3.13;2.15;;;17.70;47.80;;;;;;5014030;28;20399;-38
2021/12/20 02:57:12;;;;;;;4.15;2.42;;;17.70;47.80;;;;;;5013773;28;20029;-38
2021/12/20 02:59:38;;;;;;;4.70;2.75;;;17.70;47.80;;;;;;5013741;28;20471;-37
2021/12/20 03:02:06;;;;;;;4.10;2.20;;;17.70;47.80;;;;;;4997519;28;20037;-38
2021/12/20 03:04:32;;;;;;;4.00;2.30;;;17.70;47.80;;;;;;5013452;28;20038;-38
2021/12/20 03:07:01;;;;;;;3.95;2.10;;;17.60;47.80;;;;;;5013929;28;20038;-38
2021/12/20 03:09:34;;;;;;;3.28;1.95;;;17.70;47.90;;;;;;5024667;28;20036;-37
2021/12/20 03:12:00;;;;;;;4.20;2.40;;;17.70;47.80;;;;;;5117766;28;20012;-38
2021/12/20 03:14:39;;;;;;;4.88;2.40;;;17.70;47.80;;;;;;5117902;28;20016;-38
2021/12/20 03:17:05;;;;;;;4.47;2.40;;;17.70;47.80;;;;;;5118287;28;20047;-39
2021/12/20 03:19:31;;;;;;;3.08;2.15;;;17.70;47.90;;;;;;5119546;28;20474;-39
2021/12/20 03:21:57;;;;;;;3.65;2.15;;;17.70;47.80;;;;;;5119289;28;20023;-38
2021/12/20 03:24:23;;;;;;;3.42;1.98;;;17.70;47.80;;;;;;5118844;28;20027;-41
2021/12/20 03:26:49;;;;;;;3.65;2.20;;;17.70;48.30;;;;;;5118605;28;20016;-39
2021/12/20 03:29:16;;;;;;;4.45;2.30;;;17.70;47.70;;;;;;5119074;28;20016;-42
2021/12/20 03:31:42;;;;;;;3.55;1.92;;;17.70;47.70;;;;;;5119596;28;20043;-39
2021/12/20 03:34:08;;;;;;;2.78;1.83;;;17.70;47.70;;;;;;5119102;28;20023;-40
2021/12/20 03:36:34;;;;;;;4.50;2.50;;;17.70;47.70;;;;;;5119013;28;20107;-39
2021/12/20 03:39:00;;;;;;;2.05;1.67;;;17.70;47.80;;;;;;5118863;28;20031;-38
2021/12/20 03:41:26;;;;;;;3.92;2.13;;;17.70;47.80;;;;;;5118374;28;20466;-39
2021/12/20 03:43:52;;;;;;;3.45;1.98;;;17.60;47.80;;;;;;5118563;28;20032;-38
2021/12/20 03:46:18;;;;;;;2.72;1.85;;;17.70;47.80;;;;;;5118529;28;20034;-39
2021/12/20 03:48:44;;;;;;;4.70;2.17;;;17.70;47.80;;;;;;5118435;28;20064;-40
2021/12/20 03:51:10;;;;;;;3.95;1.80;;;17.70;47.80;;;;;;5118787;28;20027;-41
2021/12/20 03:53:38;;;;;;;3.70;1.70;;;17.70;47.70;;;;;;5118125;28;20020;-39
2021/12/20 03:56:05;;;;;;;4.07;2.00;;;17.70;47.80;;;;;;5119358;28;20024;-40
2021/12/20 03:58:32;;;;;;;3.08;1.80;;;17.70;47.80;;;;;;5120436;28;20012;-39
2021/12/20 04:00:58;;;;;;;3.95;2.00;;;17.70;47.80;;;;;;5102796;28;20040;-39
2021/12/20 04:03:25;;;;;;;4.07;1.70;;;17.70;47.80;;;;;;5120482;28;20102;-38
2021/12/20 04:05:51;;;;;;;4.50;2.00;;;17.70;47.70;;;;;;5120054;28;20024;-38
2021/12/20 04:08:17;;;;;;;3.42;1.80;;;17.70;47.80;;;;;;5119764;28;20023;-40
2021/12/20 04:10:43;;;;;;;3.05;1.67;;;17.60;47.80;;;;;;5118032;28;20137;-38
2021/12/20 04:13:10;;;;;;;3.35;1.90;;;17.70;47.80;;;;;;5117691;28;20035;-38
2021/12/20 04:15:36;;;;;;;4.22;2.00;;;17.70;47.70;;;;;;5117135;28;20024;-38
2021/12/20 04:18:03;;;;;;;3.00;2.00;;;17.70;47.60;;;;;;5099067;28;20020;-38
2021/12/20 04:20:30;;;;;;;3.33;1.63;;;17.80;47.60;;;;;;5116875;28;20031;-38
2021/12/20 04:22:56;;;;;;;4.30;1.95;;;17.80;47.40;;;;;;5116110;28;20043;-38
2021/12/20 04:25:22;;;;;;;3.47;1.80;;;17.90;47.20;;;;;;5097183;28;20059;-39
2021/12/20 04:27:48;;;;;;;2.60;1.60;;;18.00;47.10;;;;;;5115931;28;20012;-38
2021/12/20 04:30:14;;;;;;;3.38;1.80;;;18.00;46.90;;;;;;5116204;28;20466;-39
2021/12/20 04:32:42;;;;;;;2.88;1.65;;;18.10;46.70;;;;;;5115719;28;20489;-38
2021/12/20 04:35:08;;;;;;;4.88;2.28;;;18.20;46.60;;;;;;5098101;28;20076;-38
2021/12/20 04:37:34;;;;;;;3.08;1.50;;;18.20;46.40;;;;;;5115380;28;20363;-39
2021/12/20 04:40:05;;;;;;;3.03;1.60;;;18.30;46.30;;;;;;5118190;28;20044;-41
2021/12/20 04:42:31;;;;;;;5.22;2.08;;;18.40;46.10;;;;;;5103867;28;20023;-41
2021/12/20 04:44:57;;;;;;;2.85;1.65;;;18.40;46.00;;;;;;5102118;28;20088;-40
2021/12/20 04:47:23;;;;;;;2.38;1.50;;;18.50;45.80;;;;;;5120096;28;20012;-39
2021/12/20 04:49:49;;;;;;;2.92;1.50;;;18.60;45.70;;;;;;5102039;28;20020;-41
2021/12/20 04:52:16;;;;;;;4.35;1.60;;;18.60;45.60;;;;;;5100951;28;20019;-39
2021/12/20 04:54:42;;;;;;;2.67;1.65;;;18.60;45.40;;;;;;5100774;28;20054;-38
2021/12/20 04:57:09;;;;;;;3.05;1.60;;;18.70;45.40;;;;;;5119051;28;20640;-41
2021/12/20 04:59:35;;;;;;;3.20;1.60;;;18.70;45.20;;;;;;5118566;28;20020;-37
2021/12/20 05:02:01;;;;;;;2.22;1.38;;;18.80;45.10;;;;;;5118353;28;20537;-38
2021/12/20 05:04:28;;;;;;;3.55;1.83;;;18.80;45.00;;;;;;5100451;28;20023;-40
2021/12/20 05:06:53;;;;;;;2.97;1.70;;;18.90;44.90;;;;;;5099131;28;20098;-39
2021/12/20 05:09:20;;;;;;;3.13;1.60;;;19.00;44.80;;;;;;5099852;28;20019;-39
2021/12/20 05:11:57;;;;;;;2.58;1.52;;;19.00;44.60;;;;;;5116007;28;20039;-38
2021/12/20 05:14:23;;;;;;;3.33;1.50;;;19.00;44.60;;;;;;5116213;28;20022;-38
2021/12/20 05:16:49;;;;;;;2.92;1.52;;;19.10;44.50;;;;;;5115630;28;20058;-38
2021/12/20 05:19:15;;;;;;;3.35;1.65;;;19.20;44.30;;;;;;5116309;28;20020;-39
2021/12/20 05:21:42;;;;;;;3.13;1.48;;;19.20;44.20;;;;;;5115893;28;20034;-38
2021/12/20 05:24:08;;;;;;;3.63;1.60;;;19.30;44.10;;;;;;5115532;28;20028;-39
2021/12/20 05:26:33;;;;;;;2.08;1.38;;;19.30;44.00;;;;;;5116205;28;20048;-38
2021/12/20 05:29:05;;;;;;;2.38;1.35;;;19.30;43.90;;;;;;5116324;28;20516;-38
2021/12/20 05:31:33;;;;;;;3.03;1.40;;;19.40;43.90;;;;;;5116475;28;20015;-38
2021/12/20 05:33:59;;;;;;;5.15;1.63;;;19.40;43.70;;;;;;5116093;28;20066;-39
2021/12/20 05:36:25;;;;;;;3.08;1.58;;;19.40;43.60;;;;;;5097673;28;20023;-38
2021/12/20 05:38:50;;;;;;;2.45;1.50;;;19.50;43.60;;;;;;5115957;28;20036;-39
2021/12/20 05:41:16;;;;;;;3.05;1.50;;;19.50;43.60;;;;;;5116905;28;20106;-38
2021/12/20 05:43:43;;;;;;;1.80;1.30;;;19.50;43.50;;;;;;5118100;28;20023;-38
2021/12/20 05:46:08;;;;;;;2.38;1.30;;;19.50;43.50;;;;;;5117477;28;20008;-37
2021/12/20 05:48:35;;;;;;;2.78;1.50;;;19.60;43.40;;;;;;5118259;28;20421;-39
2021/12/20 05:51:01;;;;;;;3.17;1.73;;;19.60;43.30;;;;;;5117764;28;20011;-39
2021/12/20 05:53:27;;;;;;;2.45;1.40;;;19.60;43.30;;;;;;5117185;28;20501;-39
2021/12/20 05:55:53;;;;;;;2.63;1.30;;;19.60;43.20;;;;;;5115255;28;20035;-38
2021/12/20 05:58:19;;;;;;;3.03;1.35;;;19.70;43.20;;;;;;5115763;28;20019;-38
2021/12/20 06:00:46;;;;;;;2.38;1.40;;;19.70;43.10;;;;;;5115666;28;20072;-38
2021/12/20 06:03:12;;;;;;;3.70;1.35;;;19.70;43.00;;;;;;5116436;28;20015;-38
2021/12/20 06:05:41;;;;;;;1.85;1.20;;;19.70;43.00;;;;;;5116057;28;20115;-38
2021/12/20 06:08:07;;;;;;;2.97;1.33;;;19.80;43.00;;;;;;5116736;28;20016;-38
2021/12/20 06:10:34;;;;;;;2.28;1.30;;;19.80;42.90;;;;;;5115975;28;20066;-39
2021/12/20 06:13:00;;;;;;;2.53;1.30;;;19.80;43.30;;;;;;5116287;28;20008;-39
2021/12/20 06:15:26;;;;;;;2.60;1.35;;;19.80;42.70;;;;;;5116650;28;20020;-39
2021/12/20 06:17:52;;;;;;;2.60;1.30;;;19.90;42.70;;;;;;5118597;28;20058;-39
2021/12/20 06:20:18;;;;;;;2.30;1.35;;;19.90;42.60;;;;;;5119903;28;20405;-38
2021/12/20 06:22:44;;;;;;;2.28;1.10;;;19.90;42.50;;;;;;5119777;28;20538;-38
2021/12/20 06:25:10;;;;;;;2.92;1.20;;;19.90;42.50;;;;;;5119421;28;20123;-38
2021/12/20 06:27:37;;;;;;;2.60;1.42;;;19.90;42.40;;;;;;5118196;28;20015;-37
2021/12/20 06:30:04;;;;;;;2.65;1.13;;;19.90;42.90;;;;;;5118178;28;20038;-38
2021/12/20 06:32:30;;;;;;;2.65;1.27;;;20.00;42.30;;;;;;5117067;28;20048;-38
2021/12/20 06:34:56;;;;;;;2.75;1.40;;;20.00;42.20;;;;;;5099295;28;20094;-39
2021/12/20 06:37:22;;;;;;;2.38;1.17;;;20.00;42.10;;;;;;5116865;28;20486;-37
2021/12/20 06:39:47;;;;;;;2.50;1.20;;;20.00;42.10;;;;;;5117305;28;20030;-38
2021/12/20 06:42:14;;;;;;;2.30;1.17;;;20.10;42.00;;;;;;5099886;28;20019;-40
2021/12/20 06:44:41;;;;;;;2.63;1.38;;;20.00;41.90;;;;;;5117195;28;20023;-39
2021/12/20 06:47:07;;;;;;;2.35;1.30;;;20.10;41.80;;;;;;5117502;28;20125;-38
2021/12/20 06:49:33;;;;;;;2.72;1.42;;;20.10;41.80;;;;;;5117381;28;20045;-38
2021/12/20 06:52:02;;;;;;;2.67;1.20;;;20.10;41.60;;;;;;5117609;28;20027;-39
2021/12/20 06:54:28;;;;;;;2.97;1.30;;;20.10;41.60;;;;;;5099696;28;20020;-41
2021/12/20 06:56:54;;;;;;;1.83;1.00;;;20.10;41.50;;;;;;5098853;28;20030;-38
2021/12/20 06:59:19;;;;;;;3.00;1.48;;;20.20;41.50;;;;;;5117291;28;20110;-38
2021/12/20 07:01:46;;;;;;;3.05;1.08;;;20.20;41.40;;;;;;5116356;28;20027;-37
2021/12/20 07:04:12;;;;;;;3.08;1.40;;;20.20;41.40;;;;;;5097965;28;20027;-37
2021/12/20 07:06:38;;;;;;;3.15;1.38;;;20.20;41.30;;;;;;5115891;28;20095;-38
2021/12/20 07:09:04;;;;;;;2.78;1.10;;;20.20;41.20;;;;;;5115879;28;20016;-40
2021/12/20 07:11:33;;;;;;;3.03;1.30;;;20.20;41.20;;;;;;5098099;28;20027;-37
2021/12/20 07:13:59;;;;;;;3.15;1.48;;;20.20;41.00;;;;;;5115735;28;20044;-38
2021/12/20 07:16:24;;;;;;;3.00;1.33;;;20.20;40.90;;;;;;5115312;28;20410;-38
2021/12/20 07:18:51;;;;;;;2.42;1.30;;;20.30;40.90;;;;;;5098023;28;20032;-39
2021/12/20 07:21:17;;;;;;;2.92;1.30;;;20.20;40.80;;;;;;5096779;28;20023;-39
2021/12/20 07:23:43;;;;;;;3.67;1.20;;;20.30;40.80;;;;;;5078516;28;20023;-38
2021/12/20 07:26:10;;;;;;;2.70;1.40;;;20.30;40.70;;;;;;5114889;28;20061;-38
2021/12/20 07:28:36;;;;;;;4.43;1.42;;;20.30;40.70;;;;;;5096506;28;20013;-38
2021/12/20 07:31:02;;;;;;;3.97;1.45;;;20.30;40.60;;;;;;5080035;28;20019;-38
2021/12/20 07:33:27;;;;;;;2.83;1.10;;;20.30;40.50;;;;;;5096900;28;20020;-38
2021/12/20 07:35:54;;;;;;;4.88;1.20;;;20.30;40.40;;;;;;5115082;28;20031;-38
2021/12/20 07:38:20;;;;;;;4.80;1.20;;;20.30;40.40;;;;;;5115434;28;20024;-39
2021/12/20 07:40:50;;;;;;;3.95;1.20;;;20.30;40.30;;;;;;5114807;28;20023;-37
2021/12/20 07:43:16;;;;;;;3.97;1.33;;;20.40;40.30;;;;;;5096653;28;20016;-38
2021/12/20 07:45:42;;;;;;;4.13;1.50;;;20.40;40.20;;;;;;5096704;28;20019;-38
2021/12/20 07:48:09;;;;;;;3.67;1.50;;;20.40;40.10;;;;;;5114850;28;20054;-38
2021/12/20 07:50:34;;;;;;;3.53;1.40;;;20.40;40.00;;;;;;5114416;28;20019;-38
2021/12/20 07:53:01;;;;;;;4.68;1.40;;;20.40;40.50;;;;;;5096428;28;20521;-38
2021/12/20 07:55:27;;;;;;;4.88;1.67;;;20.40;39.80;;;;;;5114930;28;20043;-37
2021/12/20 07:57:53;;;;;;;5.93;1.50;;;20.40;39.70;;;;;;5115173;28;20027;-38
2021/12/20 08:00:19;;;;;;;8.38;1.90;;;20.40;39.60;;;;;;5115149;28;20016;-38
2021/12/20 08:02:45;;;;;;;5.82;1.60;;;20.40;39.40;;;;;;5114385;28;20043;-38
2021/12/20 08:05:13;;;;;;;5.22;1.65;;;20.40;39.30;;;;;;5114883;28;20058;-38
2021/12/20 08:07:40;;;;;;;6.78;1.95;;;20.40;39.20;;;;;;5114335;28;20035;-38
2021/12/20 08:10:08;;;;;;;5.45;1.67;;;20.40;39.20;;;;;;5097382;28;20004;-38
2021/12/20 08:12:33;;;;;;;5.70;2.58;;;20.40;39.20;;;;;;5096295;28;20012;-38
2021/12/20 08:14:59;;;;;;;6.03;1.70;;;20.40;39.10;;;;;;5096766;28;20376;-38
2021/12/20 08:17:25;;;;;;;5.35;1.60;;;20.50;39.10;;;;;;5113896;28;20045;-38
2021/12/20 08:19:51;;;;;;;5.88;1.65;;;20.50;38.90;;;;;;5114957;28;20023;-38
2021/12/20 08:22:17;;;;;;;5.03;1.60;;;20.50;38.80;;;;;;5115102;28;20011;-38
2021/12/20 08:24:42;;;;;;;6.22;1.73;;;20.50;38.70;;;;;;5096724;28;20065;-37
2021/12/20 08:27:08;;;;;;;5.13;1.70;;;20.50;38.60;;;;;;5114945;28;20448;-37
2021/12/20 08:29:34;;;;;;;6.63;1.85;;;20.60;38.60;;;;;;5097776;28;20070;-37
2021/12/20 08:32:01;;;;;;;5.53;1.70;;;20.60;38.50;;;;;;5115948;28;20373;-37
2021/12/20 08:34:28;;;;;;;5.22;1.90;;;20.60;38.50;;;;;;5097266;28;20048;-38
2021/12/20 08:36:55;;;;;;;6.85;1.90;;;20.70;38.30;;;;;;5115146;28;20012;-38
2021/12/20 08:39:22;;;;;;;8.63;2.17;;;20.70;38.30;;;;;;5113898;28;20024;-38
2021/12/20 08:41:47;;;;;;;6.00;2.00;;;20.70;38.20;;;;;;5095720;28;20088;-36
2021/12/20 08:44:14;;;;;;;6.35;1.83;;;20.70;38.10;;;;;;5096158;28;20073;-36
2021/12/20 08:46:40;;;;;;;7.53;1.90;;;20.80;38.10;;;;;;5096104;28;20426;-37
2021/12/20 08:49:08;;;;;;;6.45;2.28;;;20.70;37.90;;;;;;5115746;28;20015;-37
2021/12/20 08:51:34;;;;;;;8.73;2.53;;;20.70;37.90;;;;;;5114324;28;20042;-38
2021/12/20 08:54:00;;;;;;;6.75;1.85;;;20.70;37.80;;;;;;5063248;28;20019;-38
2021/12/20 08:56:28;;;;;;;6.88;1.73;;;20.70;37.80;;;;;;5114684;28;20134;-36
2021/12/20 08:58:54;;;;;;;7.68;2.08;;;20.70;37.60;;;;;;5114979;28;20030;-38
2021/12/20 09:01:21;;;;;;;6.30;1.92;;;20.70;37.60;;;;;;5115227;28;20521;-36
2021/12/20 09:03:46;;;;;;;6.95;1.88;;;20.70;38.10;;;;;;5116218;28;20026;-37
2021/12/20 09:06:13;;;;;;;7.85;2.00;;;20.80;37.40;;;;;;5097014;28;20023;-37
2021/12/20 09:08:40;;;;;;;7.35;1.80;;;20.80;37.30;;;;;;5116518;28;20015;-37
2021/12/20 09:11:06;;;;;;;6.55;1.90;;;20.80;37.10;;;;;;5098464;28;20019;-38
2021/12/20 09:13:32;;;;;;;6.97;1.70;;;20.90;37.10;;;;;;5114848;28;20016;-36
2021/12/20 09:15:59;;;;;;;8.00;2.28;;;20.80;37.00;;;;;;5096115;28;20048;-38
2021/12/20 09:18:27;;;;;;;7.28;1.98;;;20.90;37.00;;;;;;5115309;28;20080;-36
2021/12/20 09:20:56;;;;;;;6.35;2.03;;;20.90;36.90;;;;;;5096802;28;20074;-37
2021/12/20 09:23:25;;;;;;;7.85;2.03;;;20.90;36.70;;;;;;5113918;28;20054;-37
2021/12/20 09:25:51;;;;;;;7.00;1.90;;;20.90;36.60;;;;;;5114522;28;20054;-38
2021/12/20 09:28:17;;;;;;;5.32;1.80;;;20.90;36.50;;;;;;5097431;28;20037;-39
2021/12/20 09:30:44;;;;;;;8.13;1.85;;;20.90;36.40;;;;;;5115360;28;20030;-39
2021/12/20 09:33:11;;;;;;;6.70;2.10;;;20.80;36.30;;;;;;5115617;28;20003;-38
2021/12/20 09:35:36;;;;;;;7.50;2.15;;;20.90;36.20;;;;;;5096299;28;20061;-39
2021/12/20 09:38:06;;;;;;;8.32;1.92;;;20.90;36.00;;;;;;5096436;28;20099;-38
2021/12/20 09:40:36;;;;;;;7.25;2.47;;;20.90;35.90;;;;;;5096975;28;20502;-38
2021/12/20 09:43:04;;;;;;;4.90;1.58;;;20.90;35.80;;;;;;5115863;28;20072;-40
2021/12/20 09:45:30;;;;;;;10.75;2.20;;;20.90;35.70;;;;;;5115353;28;20438;-38
2021/12/20 09:47:56;;;;;;;5.18;1.83;;;20.90;35.70;;;;;;5115130;28;20083;-39
2021/12/20 09:50:23;;;;;;;8.77;1.95;;;20.90;35.50;;;;;;5115917;28;20062;-39
2021/12/20 09:52:49;;;;;;;6.70;1.85;;;20.90;35.40;;;;;;5100275;28;20011;-38
2021/12/20 09:55:16;;;;;;;7.72;2.13;;;20.90;35.30;;;;;;5101407;28;20095;-38
2021/12/20 09:57:42;;;;;;;9.43;2.15;;;20.90;35.20;;;;;;5120027;28;20474;-39
2021/12/20 10:00:10;;;;;;;8.13;1.90;;;20.90;35.10;;;;;;5118973;28;20099;-41
2021/12/20 10:02:35;;;;;;;8.05;2.20;;;20.90;35.10;;;;;;5119102;28;20023;-39
2021/12/20 10:05:01;;;;;;;7.28;1.65;;;20.90;35.00;;;;;;5119561;28;20073;-41
2021/12/20 10:07:29;;;;;;;8.65;2.00;;;20.90;34.90;;;;;;5102364;28;20485;-38
2021/12/20 10:09:55;;;;;;;11.68;1.98;;;20.90;34.80;;;;;;5120397;28;20019;-39
2021/12/20 10:12:25;;;;;;;9.80;2.03;;;20.90;34.60;;;;;;5084086;28;20015;-39
2021/12/20 10:15:01;;;;;;;9.48;1.88;;;20.90;34.60;;;;;;5118783;28;20376;-38
2021/12/20 10:17:56;;;;;;;7.80;2.10;;;20.90;34.60;;;;;;5119538;28;20184;-39
2021/12/20 10:20:24;;;;;;;5.78;1.77;;;20.90;34.50;;;;;;5100668;28;20034;-38
2021/12/20 10:22:51;;;;;;;6.55;2.03;;;20.90;34.40;;;;;;5118386;28;20019;-39
2021/12/20 10:25:24;;;;;;;11.73;2.42;;;20.90;34.20;;;;;;5118580;28;20394;-37
2021/12/20 10:27:50;;;;;;;9.52;2.20;;;20.90;34.10;;;;;;5100546;28;20004;-36
2021/12/20 10:30:28;;;;;;;11.07;2.42;;;20.90;34.10;;;;;;5118443;28;20016;-40
2021/12/20 10:32:55;;;;;;;7.40;2.17;;;20.90;33.90;;;;;;5118383;28;20019;-37
2021/12/20 10:35:29;;;;;;;9.05;2.33;;;20.90;33.80;;;;;;5117866;28;20036;-36
2021/12/20 10:37:57;;;;;;;9.77;2.22;;;20.90;33.80;;;;;;5117897;28;20046;-37
2021/12/20 10:40:22;;;;;;;7.63;1.95;;;20.90;33.60;;;;;;5119303;28;20497;-37
2021/12/20 10:42:49;;;;;;;10.55;2.22;;;20.90;33.50;;;;;;5099265;28;20018;-36
2021/12/20 10:45:18;;;;;;;7.25;2.05;;;20.90;33.40;;;;;;5116888;28;20019;-38
2021/12/20 10:47:44;;;;;;;8.07;2.40;;;20.90;33.30;;;;;;5117076;28;20007;-37
2021/12/20 10:51:06;;;;;;;15.52;2.40;;;20.90;33.20;;;;;;5098812;28;20106;-36
2021/12/20 10:53:25;;;;;;;10.85;2.53;;;20.90;33.00;;;;;;5113934;28;20482;-36
2021/12/20 10:56:02;;;;;;;10.18;2.33;;;20.90;32.90;;;;;;5117283;28;20027;-40
2021/12/20 10:58:41;;;;;;;7.88;2.10;;;20.90;32.80;;;;;;5100049;28;20047;-36
2021/12/20 11:01:12;;;;;;;6.80;2.00;;;20.90;32.80;;;;;;5099743;28;20023;-36
2021/12/20 11:03:40;;;;;;;7.10;1.83;;;20.90;32.70;;;;;;5115754;28;20099;-38
2021/12/20 11:06:24;;;;;;;11.75;2.17;;;20.90;32.70;;;;;;5117293;28;20020;-38
2021/12/20 11:09:05;;;;;;;8.98;2.40;;;21.00;32.70;;;;;;5100600;28;20474;-39
2021/12/20 11:11:32;;;;;;;13.60;2.88;;;21.00;33.10;;;;;;5115917;28;20031;-38
2021/12/20 11:13:59;;;;;;;8.38;2.47;;;21.00;32.50;;;;;;5116486;28;20008;-38
2021/12/20 11:16:27;;;;;;;8.68;2.08;;;21.00;32.50;;;;;;5116194;28;20483;-39
2021/12/20 11:19:13;;;;;;;8.65;2.25;;;21.00;32.40;;;;;;5116651;28;20099;-39
2021/12/20 11:21:53;;;;;;;10.02;2.40;;;21.00;32.40;;;;;;5098224;28;20012;-40
2021/12/20 11:24:24;;;;;;;7.45;2.20;;;21.00;32.40;;;;;;5116707;28;20027;-36
2021/12/20 11:26:51;;;;;;;10.55;2.20;;;21.00;32.20;;;;;;5116546;28;20501;-37
2021/12/20 11:29:17;;;;;;;10.02;2.20;;;21.00;32.20;;;;;;5116601;28;20012;-36
2021/12/20 11:31:43;;;;;;;6.95;1.90;;;21.10;32.10;;;;;;5099162;28;20023;-37
2021/12/20 11:34:09;;;;;;;8.05;2.00;;;21.00;31.90;;;;;;5098497;28;20018;-37
2021/12/20 11:36:36;;;;;;;7.85;1.85;;;21.10;32.00;;;;;;5116701;28;20023;-36
2021/12/20 11:39:03;;;;;;;7.30;1.92;;;21.10;31.90;;;;;;5116383;28;20024;-37
2021/12/20 11:41:31;;;;;;;10.38;2.30;;;21.10;31.80;;;;;;5117144;28;20092;-37
2021/12/20 11:43:57;;;;;;;11.85;2.25;;;21.10;31.70;;;;;;5117361;28;20182;-36
2021/12/20 11:46:25;;;;;;;8.02;2.20;;;21.10;31.70;;;;;;5117695;28;20023;-36
2021/12/20 11:48:52;;;;;;;7.68;1.90;;;21.10;31.60;;;;;;5099051;28;20020;-37
2021/12/20 11:51:18;;;;;;;9.00;2.10;;;21.10;31.60;;;;;;5116534;28;20011;-37
2021/12/20 11:53:44;;;;;;;6.78;2.10;;;21.10;32.10;;;;;;5116346;28;20014;-37
2021/12/20 11:56:10;;;;;;;8.27;2.20;;;21.10;31.60;;;;;;5116312;28;20008;-37
2021/12/20 11:58:39;;;;;;;6.68;1.90;;;21.10;31.50;;;;;;5099162;28;20023;-36
2021/12/20 12:01:18;;;;;;;10.43;2.38;;;21.10;31.40;;;;;;5099590;28;20027;-38
2021/12/20 12:03:57;;;;;;;7.25;2.17;;;21.10;31.30;;;;;;5116799;28;20008;-36
2021/12/20 12:06:29;;;;;;;7.82;1.65;;;21.20;31.30;;;;;;5098599;28;20410;-36
2021/12/20 12:08:58;;;;;;;8.02;1.90;;;21.10;31.30;;;;;;5098695;28;20019;-36
2021/12/20 12:11:24;;;;;;;8.60;2.40;;;21.10;31.20;;;;;;5116843;28;20015;-36
2021/12/20 12:14:01;;;;;;;8.20;2.10;;;21.10;31.20;;;;;;5098657;28;20015;-37
2021/12/20 12:17:02;;;;;;;8.13;1.90;;;21.10;31.10;;;;;;5116731;28;20043;-39
2021/12/20 12:19:36;;;;;;;8.15;2.15;;;21.20;31.00;;;;;;5014706;28;20054;-38
2021/12/20 12:22:02;;;;;;;5.30;1.80;;;21.20;31.00;;;;;;5014384;28;20079;-37
2021/12/20 12:24:45;;;;;;;7.80;2.10;;;21.20;31.00;;;;;;4998546;28;20591;-37
2021/12/20 12:27:27;;;;;;;6.50;1.70;;;21.20;30.90;;;;;;5014546;28;20053;-37
2021/12/20 12:30:11;;;;;;;8.05;2.15;;;21.20;30.90;;;;;;5014389;28;20033;-37
2021/12/20 12:32:49;;;;;;;6.63;1.77;;;21.20;30.90;;;;;;5014198;28;20492;-37
2021/12/20 12:35:51;;;;;;;9.48;2.17;;;21.10;30.80;;;;;;4999219;28;20033;-38
2021/12/20 12:38:25;;;;;;;7.93;1.80;;;21.20;30.70;;;;;;5014097;28;20524;-38
2021/12/20 12:41:08;;;;;;;8.43;2.60;;;21.20;30.60;;;;;;5014230;28;20030;-37
2021/12/20 12:43:48;;;;;;;7.70;1.95;;;21.20;30.60;;;;;;4981894;28;20452;-37
2021/12/20 12:46:14;;;;;;;;;;;21.20;30.60;;;;;;5014650;28;20157;-37
2021/12/20 12:48:47;;;;;;;7.05;1.67;;;21.20;30.60;;;;;;5013730;28;20356;-37
2021/12/20 12:51:19;;;;;;;9.40;2.08;;;21.20;30.60;;;;;;4997830;28;20017;-37
2021/12/20 12:53:48;;;;;;;6.75;1.70;;;21.20;30.60;;;;;;5014541;28;20101;-37
2021/12/20 12:56:26;;;;;;;;;;;21.20;30.60;;;;;;5116889;28;20019;-37
2021/12/20 12:59:23;;;;;;;8.63;1.90;;;21.20;30.50;;;;;;5116539;28;19998;-38
2021/12/20 13:01:56;;;;;;;6.35;1.83;;;21.20;30.40;;;;;;5095951;28;20443;-37
2021/12/20 13:04:47;;;;;;;7.43;2.17;;;21.20;30.40;;;;;;5098875;28;20027;-38